sensor_id;sensor_type;location;lat;lon;timestamp;pressure;altitude;pressure_sealevel;temperature;humidity
9764;BME280;4921;43.214;27.936;2024-02-21T00:00:54;101797.19;;;6.89;72.85
9764;BME280;4921;43.214;27.936;2024-02-21T00:03:20;101801.69;;;6.99;72.52
9764;BME280;4921;43.214;27.936;2024-02-21T00:05:46;101795.50;;;6.93;73.57
9764;BME280;4921;43.214;27.936;2024-02-21T00:08:11;101794.53;;;6.65;73.62
9764;BME280;4921;43.214;27.936;2024-02-21T00:10:37;101796.16;;;6.85;72.52
9764;BME280;4921;43.214;27.936;2024-02-21T00:13:03;101783.38;;;6.81;73.53
9764;BME280;4921;43.214;27.936;2024-02-21T00:15:28;101788.25;;;6.84;72.10
9764;BME280;4921;43.214;27.936;2024-02-21T00:17:54;101797.28;;;6.84;72.56
9764;BME280;4921;43.214;27.936;2024-02-21T00:20:19;101799.06;;;6.75;73.25
9764;BME280;4921;43.214;27.936;2024-02-21T00:22:46;101789.81;;;6.71;73.25
9764;BME280;4921;43.214;27.936;2024-02-21T00:25:11;101796.50;;;6.65;74.12
9764;BME280;4921;43.214;27.936;2024-02-21T00:27:38;101798.47;;;6.78;73.97
9764;BME280;4921;43.214;27.936;2024-02-21T00:30:05;101797.81;;;6.86;73.04
9764;BME280;4921;43.214;27.936;2024-02-21T00:32:31;101774.94;;;6.77;72.70
9764;BME280;4921;43.214;27.936;2024-02-21T00:34:57;101788.38;;;6.92;72.73
9764;BME280;4921;43.214;27.936;2024-02-21T00:37:23;101786.16;;;6.94;72.92
9764;BME280;4921;43.214;27.936;2024-02-21T00:39:48;101784.56;;;6.93;73.04
9764;BME280;4921;43.214;27.936;2024-02-21T00:42:14;101790.81;;;6.94;72.18
9764;BME280;4921;43.214;27.936;2024-02-21T00:44:39;101779.47;;;6.68;73.64
9764;BME280;4921;43.214;27.936;2024-02-21T00:47:05;101786.72;;;6.59;73.38
9764;BME280;4921;43.214;27.936;2024-02-21T00:49:30;101788.19;;;6.70;73.03
9764;BME280;4921;43.214;27.936;2024-02-21T00:51:56;101783.69;;;6.79;73.53
9764;BME280;4921;43.214;27.936;2024-02-21T00:54:21;101791.81;;;6.84;73.62
9764;BME280;4921;43.214;27.936;2024-02-21T00:56:48;101779.38;;;6.73;73.34
9764;BME280;4921;43.214;27.936;2024-02-21T00:59:14;101774.34;;;6.80;72.33
9764;BME280;4921;43.214;27.936;2024-02-21T01:01:39;101786.16;;;6.94;72.79
9764;BME280;4921;43.214;27.936;2024-02-21T01:04:08;101787.91;;;6.71;74.03
9764;BME280;4921;43.214;27.936;2024-02-21T01:06:34;101784.84;;;6.73;74.25
9764;BME280;4921;43.214;27.936;2024-02-21T01:09:00;101762.34;;;6.76;72.68
9764;BME280;4921;43.214;27.936;2024-02-21T01:11:26;101782.81;;;6.97;72.49
9764;BME280;4921;43.214;27.936;2024-02-21T01:13:51;101771.78;;;7.02;72.98
9764;BME280;4921;43.214;27.936;2024-02-21T01:16:17;101765.31;;;6.80;74.10
9764;BME280;4921;43.214;27.936;2024-02-21T01:18:42;101769.47;;;6.77;74.24
9764;BME280;4921;43.214;27.936;2024-02-21T01:21:08;101776.41;;;6.88;74.27
9764;BME280;4921;43.214;27.936;2024-02-21T01:23:35;101766.31;;;7.02;73.22
9764;BME280;4921;43.214;27.936;2024-02-21T01:26:02;101762.91;;;7.10;72.54
9764;BME280;4921;43.214;27.936;2024-02-21T01:28:30;101763.19;;;7.09;72.32
9764;BME280;4921;43.214;27.936;2024-02-21T01:30:57;101768.91;;;6.94;72.36
9764;BME280;4921;43.214;27.936;2024-02-21T01:33:22;101758.06;;;6.89;73.66
9764;BME280;4921;43.214;27.936;2024-02-21T01:35:48;101760.81;;;7.02;72.45
9764;BME280;4921;43.214;27.936;2024-02-21T01:38:15;101753.13;;;7.04;73.11
9764;BME280;4921;43.214;27.936;2024-02-21T01:40:41;101751.63;;;7.12;72.60
9764;BME280;4921;43.214;27.936;2024-02-21T01:43:25;101756.94;;;7.22;71.33
9764;BME280;4921;43.214;27.936;2024-02-21T01:45:57;101753.34;;;7.08;72.66
9764;BME280;4921;43.214;27.936;2024-02-21T01:48:23;101746.97;;;6.80;72.96
9764;BME280;4921;43.214;27.936;2024-02-21T01:50:50;101761.09;;;6.87;72.93
9764;BME280;4921;43.214;27.936;2024-02-21T01:53:24;101769.19;;;7.11;73.16
9764;BME280;4921;43.214;27.936;2024-02-21T01:55:50;101764.34;;;7.21;72.79
9764;BME280;4921;43.214;27.936;2024-02-21T01:58:16;101764.81;;;7.10;72.94
9764;BME280;4921;43.214;27.936;2024-02-21T02:00:44;101756.06;;;6.94;73.37
9764;BME280;4921;43.214;27.936;2024-02-21T02:03:11;101755.63;;;6.87;73.63
9764;BME280;4921;43.214;27.936;2024-02-21T02:05:46;101761.56;;;7.08;73.18
9764;BME280;4921;43.214;27.936;2024-02-21T02:08:17;101760.16;;;7.10;72.49
9764;BME280;4921;43.214;27.936;2024-02-21T02:10:44;101752.97;;;7.14;71.71
9764;BME280;4921;43.214;27.936;2024-02-21T02:13:10;101757.84;;;7.17;72.06
9764;BME280;4921;43.214;27.936;2024-02-21T02:18:08;101764.63;;;7.20;72.29
9764;BME280;4921;43.214;27.936;2024-02-21T02:20:34;101760.88;;;7.16;71.30
9764;BME280;4921;43.214;27.936;2024-02-21T02:25:38;101758.78;;;6.94;73.64
9764;BME280;4921;43.214;27.936;2024-02-21T02:28:06;101762.38;;;7.08;72.85
9764;BME280;4921;43.214;27.936;2024-02-21T02:30:32;101750.59;;;7.08;72.92
9764;BME280;4921;43.214;27.936;2024-02-21T02:32:59;101752.38;;;7.17;72.41
9764;BME280;4921;43.214;27.936;2024-02-21T02:35:24;101763.97;;;7.28;71.14
9764;BME280;4921;43.214;27.936;2024-02-21T02:37:50;101755.94;;;7.31;71.49
9764;BME280;4921;43.214;27.936;2024-02-21T02:40:17;101744.25;;;7.12;72.19
9764;BME280;4921;43.214;27.936;2024-02-21T02:42:43;101757.31;;;7.15;71.90
9764;BME280;4921;43.214;27.936;2024-02-21T02:45:09;101758.69;;;6.99;73.98
9764;BME280;4921;43.214;27.936;2024-02-21T02:47:34;101756.53;;;6.83;73.44
9764;BME280;4921;43.214;27.936;2024-02-21T02:50:00;101747.97;;;7.03;72.61
9764;BME280;4921;43.214;27.936;2024-02-21T02:52:26;101762.41;;;7.22;72.58
9764;BME280;4921;43.214;27.936;2024-02-21T02:54:52;101756.41;;;7.20;73.21
9764;BME280;4921;43.214;27.936;2024-02-21T02:57:20;101764.41;;;7.16;72.76
9764;BME280;4921;43.214;27.936;2024-02-21T02:59:50;101766.31;;;7.02;72.81
9764;BME280;4921;43.214;27.936;2024-02-21T03:02:16;101772.22;;;7.09;72.02
9764;BME280;4921;43.214;27.936;2024-02-21T03:04:42;101758.47;;;7.14;72.53
9764;BME280;4921;43.214;27.936;2024-02-21T03:07:07;101765.56;;;7.29;72.32
9764;BME280;4921;43.214;27.936;2024-02-21T03:09:33;101769.03;;;7.34;71.63
9764;BME280;4921;43.214;27.936;2024-02-21T03:11:58;101774.09;;;7.27;71.54
9764;BME280;4921;43.214;27.936;2024-02-21T03:14:33;101753.97;;;7.18;71.14
9764;BME280;4921;43.214;27.936;2024-02-21T03:16:59;101758.69;;;7.31;71.71
9764;BME280;4921;43.214;27.936;2024-02-21T03:19:25;101766.09;;;7.31;72.04
9764;BME280;4921;43.214;27.936;2024-02-21T03:21:51;101760.09;;;7.29;71.40
9764;BME280;4921;43.214;27.936;2024-02-21T03:24:18;101751.34;;;7.27;71.42
9764;BME280;4921;43.214;27.936;2024-02-21T03:26:44;101761.31;;;7.23;71.86
9764;BME280;4921;43.214;27.936;2024-02-21T03:29:11;101759.88;;;7.25;71.11
9764;BME280;4921;43.214;27.936;2024-02-21T03:31:37;101768.09;;;7.25;70.60
9764;BME280;4921;43.214;27.936;2024-02-21T03:34:03;101778.84;;;7.22;71.64
9764;BME280;4921;43.214;27.936;2024-02-21T03:36:28;101773.25;;;7.13;71.69
9764;BME280;4921;43.214;27.936;2024-02-21T03:38:54;101776.41;;;7.20;72.04
9764;BME280;4921;43.214;27.936;2024-02-21T03:41:20;101773.53;;;7.12;71.23
9764;BME280;4921;43.214;27.936;2024-02-21T03:43:46;101763.88;;;7.01;72.35
9764;BME280;4921;43.214;27.936;2024-02-21T03:46:11;101758.59;;;7.04;72.02
9764;BME280;4921;43.214;27.936;2024-02-21T03:48:37;101771.72;;;7.07;72.41
9764;BME280;4921;43.214;27.936;2024-02-21T03:51:02;101764.69;;;7.01;72.01
9764;BME280;4921;43.214;27.936;2024-02-21T03:53:28;101758.78;;;6.94;71.82
9764;BME280;4921;43.214;27.936;2024-02-21T03:55:54;101757.00;;;7.03;71.55
9764;BME280;4921;43.214;27.936;2024-02-21T03:58:20;101759.91;;;6.93;72.25
9764;BME280;4921;43.214;27.936;2024-02-21T04:00:46;101757.91;;;6.80;72.56
9764;BME280;4921;43.214;27.936;2024-02-21T04:03:11;101757.75;;;6.90;73.53
9764;BME280;4921;43.214;27.936;2024-02-21T04:05:37;101758.75;;;6.81;73.97
9764;BME280;4921;43.214;27.936;2024-02-21T04:08:06;101751.41;;;6.76;73.47
9764;BME280;4921;43.214;27.936;2024-02-21T04:10:31;101763.22;;;6.90;73.11
9764;BME280;4921;43.214;27.936;2024-02-21T04:12:57;101750.66;;;6.89;72.17
9764;BME280;4921;43.214;27.936;2024-02-21T04:15:22;101768.13;;;6.93;73.58
9764;BME280;4921;43.214;27.936;2024-02-21T04:17:48;101760.91;;;6.97;73.73
9764;BME280;4921;43.214;27.936;2024-02-21T04:20:15;101770.25;;;6.96;72.47
9764;BME280;4921;43.214;27.936;2024-02-21T04:22:44;101764.78;;;6.96;73.36
9764;BME280;4921;43.214;27.936;2024-02-21T04:25:10;101761.94;;;7.01;71.91
9764;BME280;4921;43.214;27.936;2024-02-21T04:27:37;101767.44;;;7.01;72.33
9764;BME280;4921;43.214;27.936;2024-02-21T04:30:03;101742.44;;;6.89;72.67
9764;BME280;4921;43.214;27.936;2024-02-21T04:32:29;101746.72;;;6.95;72.75
9764;BME280;4921;43.214;27.936;2024-02-21T04:34:54;101754.56;;;7.02;73.00
9764;BME280;4921;43.214;27.936;2024-02-21T04:37:20;101765.88;;;6.95;73.02
9764;BME280;4921;43.214;27.936;2024-02-21T04:39:46;101759.41;;;6.91;73.51
9764;BME280;4921;43.214;27.936;2024-02-21T04:42:12;101746.28;;;6.88;73.66
9764;BME280;4921;43.214;27.936;2024-02-21T04:44:38;101762.88;;;6.97;73.75
9764;BME280;4921;43.214;27.936;2024-02-21T04:47:03;101760.63;;;6.99;73.22
9764;BME280;4921;43.214;27.936;2024-02-21T04:49:29;101770.38;;;7.05;72.71
9764;BME280;4921;43.214;27.936;2024-02-21T04:51:55;101775.66;;;7.01;73.29
9764;BME280;4921;43.214;27.936;2024-02-21T04:54:21;101778.28;;;7.06;72.29
9764;BME280;4921;43.214;27.936;2024-02-21T04:56:46;101773.88;;;6.92;73.97
9764;BME280;4921;43.214;27.936;2024-02-21T04:59:12;101777.59;;;6.82;73.61
9764;BME280;4921;43.214;27.936;2024-02-21T05:01:37;101782.84;;;6.79;74.79
9764;BME280;4921;43.214;27.936;2024-02-21T05:04:03;101783.16;;;6.77;73.92
9764;BME280;4921;43.214;27.936;2024-02-21T05:06:28;101779.06;;;6.93;73.07
9764;BME280;4921;43.214;27.936;2024-02-21T05:08:54;101767.72;;;7.00;73.84
9764;BME280;4921;43.214;27.936;2024-02-21T05:11:24;101768.81;;;6.99;72.51
9764;BME280;4921;43.214;27.936;2024-02-21T05:13:50;101772.38;;;6.99;72.04
9764;BME280;4921;43.214;27.936;2024-02-21T05:16:16;101767.09;;;6.89;73.59
9764;BME280;4921;43.214;27.936;2024-02-21T05:18:41;101787.78;;;6.95;72.72
9764;BME280;4921;43.214;27.936;2024-02-21T05:21:08;101781.28;;;6.91;72.19
9764;BME280;4921;43.214;27.936;2024-02-21T05:23:33;101796.59;;;6.92;73.33
9764;BME280;4921;43.214;27.936;2024-02-21T05:25:59;101792.13;;;6.83;74.03
9764;BME280;4921;43.214;27.936;2024-02-21T05:28:26;101788.47;;;6.87;73.48
9764;BME280;4921;43.214;27.936;2024-02-21T05:30:52;101804.00;;;6.92;72.88
9764;BME280;4921;43.214;27.936;2024-02-21T05:33:18;101805.84;;;6.96;73.28
9764;BME280;4921;43.214;27.936;2024-02-21T05:35:47;101804.94;;;7.01;72.51
9764;BME280;4921;43.214;27.936;2024-02-21T05:38:14;101814.88;;;6.97;72.49
9764;BME280;4921;43.214;27.936;2024-02-21T05:40:40;101807.69;;;7.01;72.19
9764;BME280;4921;43.214;27.936;2024-02-21T05:43:07;101802.00;;;6.97;72.07
9764;BME280;4921;43.214;27.936;2024-02-21T05:45:32;101815.16;;;6.95;73.27
9764;BME280;4921;43.214;27.936;2024-02-21T05:47:58;101810.06;;;6.89;73.15
9764;BME280;4921;43.214;27.936;2024-02-21T05:50:23;101814.44;;;6.90;72.39
9764;BME280;4921;43.214;27.936;2024-02-21T05:52:53;101810.94;;;7.03;72.30
9764;BME280;4921;43.214;27.936;2024-02-21T05:55:19;101815.16;;;6.95;73.20
9764;BME280;4921;43.214;27.936;2024-02-21T05:57:45;101825.88;;;6.92;73.06
9764;BME280;4921;43.214;27.936;2024-02-21T06:00:11;101817.19;;;6.90;72.84
9764;BME280;4921;43.214;27.936;2024-02-21T06:02:36;101822.72;;;7.03;72.53
9764;BME280;4921;43.214;27.936;2024-02-21T06:05:02;101828.19;;;7.03;72.10
9764;BME280;4921;43.214;27.936;2024-02-21T06:07:27;101826.53;;;7.02;73.25
9764;BME280;4921;43.214;27.936;2024-02-21T06:09:53;101840.84;;;7.18;72.71
9764;BME280;4921;43.214;27.936;2024-02-21T06:12:19;101848.31;;;7.12;72.13
9764;BME280;4921;43.214;27.936;2024-02-21T06:14:44;101843.28;;;7.19;71.65
9764;BME280;4921;43.214;27.936;2024-02-21T06:17:10;101843.84;;;7.16;72.50
9764;BME280;4921;43.214;27.936;2024-02-21T06:19:40;101841.06;;;7.21;71.40
9764;BME280;4921;43.214;27.936;2024-02-21T06:22:05;101822.31;;;7.10;72.17
9764;BME280;4921;43.214;27.936;2024-02-21T06:24:33;101836.38;;;7.22;72.45
9764;BME280;4921;43.214;27.936;2024-02-21T06:26:59;101840.66;;;7.28;71.22
9764;BME280;4921;43.214;27.936;2024-02-21T06:29:24;101855.19;;;7.28;71.92
9764;BME280;4921;43.214;27.936;2024-02-21T06:31:50;101841.97;;;7.30;72.29
9764;BME280;4921;43.214;27.936;2024-02-21T06:34:15;101846.78;;;7.38;72.27
9764;BME280;4921;43.214;27.936;2024-02-21T06:36:42;101845.44;;;7.36;71.20
9764;BME280;4921;43.214;27.936;2024-02-21T06:39:07;101844.13;;;7.33;70.96
9764;BME280;4921;43.214;27.936;2024-02-21T06:41:33;101839.59;;;7.42;70.78
9764;BME280;4921;43.214;27.936;2024-02-21T06:43:59;101835.00;;;7.38;71.67
9764;BME280;4921;43.214;27.936;2024-02-21T06:46:26;101837.94;;;7.41;71.08
9764;BME280;4921;43.214;27.936;2024-02-21T06:48:53;101836.16;;;7.50;70.41
9764;BME280;4921;43.214;27.936;2024-02-21T06:51:21;101833.41;;;7.50;71.41
9764;BME280;4921;43.214;27.936;2024-02-21T06:53:47;101814.66;;;7.57;71.06
9764;BME280;4921;43.214;27.936;2024-02-21T06:56:13;101829.41;;;7.75;71.01
9764;BME280;4921;43.214;27.936;2024-02-21T06:58:38;101826.56;;;7.80;69.36
9764;BME280;4921;43.214;27.936;2024-02-21T07:01:04;101825.06;;;7.88;69.52
9764;BME280;4921;43.214;27.936;2024-02-21T07:03:30;101822.81;;;7.90;70.10
9764;BME280;4921;43.214;27.936;2024-02-21T07:05:55;101821.00;;;7.99;69.86
9764;BME280;4921;43.214;27.936;2024-02-21T07:08:21;101824.16;;;8.06;70.19
9764;BME280;4921;43.214;27.936;2024-02-21T07:10:47;101831.47;;;8.24;69.90
9764;BME280;4921;43.214;27.936;2024-02-21T07:13:12;101829.81;;;8.50;68.06
9764;BME280;4921;43.214;27.936;2024-02-21T07:15:38;101831.13;;;8.52;68.18
9764;BME280;4921;43.214;27.936;2024-02-21T07:18:04;101833.34;;;8.64;67.38
9764;BME280;4921;43.214;27.936;2024-02-21T07:20:30;101826.50;;;8.75;66.84
9764;BME280;4921;43.214;27.936;2024-02-21T07:22:55;101822.09;;;8.87;67.79
9764;BME280;4921;43.214;27.936;2024-02-21T07:25:21;101812.38;;;9.04;66.41
9764;BME280;4921;43.214;27.936;2024-02-21T07:27:46;101821.69;;;9.16;66.36
9764;BME280;4921;43.214;27.936;2024-02-21T07:30:12;101831.97;;;9.33;65.11
9764;BME280;4921;43.214;27.936;2024-02-21T07:32:38;101830.97;;;9.51;65.06
9764;BME280;4921;43.214;27.936;2024-02-21T07:35:04;101828.94;;;9.65;64.91
9764;BME280;4921;43.214;27.936;2024-02-21T07:37:30;101837.06;;;9.70;63.14
9764;BME280;4921;43.214;27.936;2024-02-21T07:39:56;101835.13;;;9.70;63.63
9764;BME280;4921;43.214;27.936;2024-02-21T07:42:22;101844.66;;;9.73;62.56
9764;BME280;4921;43.214;27.936;2024-02-21T07:44:47;101838.06;;;9.52;64.15
9764;BME280;4921;43.214;27.936;2024-02-21T07:47:13;101834.28;;;9.39;63.53
9764;BME280;4921;43.214;27.936;2024-02-21T07:49:45;101849.88;;;9.52;64.04
9764;BME280;4921;43.214;27.936;2024-02-21T07:52:14;101851.03;;;9.51;63.74
9764;BME280;4921;43.214;27.936;2024-02-21T07:54:40;101848.75;;;9.53;64.61
9764;BME280;4921;43.214;27.936;2024-02-21T07:57:07;101859.94;;;9.57;63.66
9764;BME280;4921;43.214;27.936;2024-02-21T07:59:34;101856.53;;;9.51;63.93
9764;BME280;4921;43.214;27.936;2024-02-21T08:02:00;101859.94;;;9.57;64.33
9764;BME280;4921;43.214;27.936;2024-02-21T08:04:25;101857.88;;;9.62;63.69
9764;BME280;4921;43.214;27.936;2024-02-21T08:06:52;101858.38;;;9.64;63.09
9764;BME280;4921;43.214;27.936;2024-02-21T08:09:18;101852.22;;;9.67;63.72
9764;BME280;4921;43.214;27.936;2024-02-21T08:11:44;101856.34;;;9.78;63.14
9764;BME280;4921;43.214;27.936;2024-02-21T08:14:10;101838.84;;;9.74;62.32
9764;BME280;4921;43.214;27.936;2024-02-21T08:16:35;101829.13;;;9.68;63.38
9764;BME280;4921;43.214;27.936;2024-02-21T08:19:01;101852.84;;;9.86;63.16
9764;BME280;4921;43.214;27.936;2024-02-21T08:21:28;101847.19;;;9.91;61.92
9764;BME280;4921;43.214;27.936;2024-02-21T08:23:54;101852.84;;;9.86;62.95
9764;BME280;4921;43.214;27.936;2024-02-21T08:26:20;101849.94;;;9.91;62.78
9764;BME280;4921;43.214;27.936;2024-02-21T08:28:45;101846.06;;;9.92;63.10
9764;BME280;4921;43.214;27.936;2024-02-21T08:31:11;101846.78;;;10.06;62.06
9764;BME280;4921;43.214;27.936;2024-02-21T08:33:36;101847.09;;;10.05;62.75
9764;BME280;4921;43.214;27.936;2024-02-21T08:36:02;101842.63;;;10.09;61.80
9764;BME280;4921;43.214;27.936;2024-02-21T08:38:28;101847.16;;;10.14;62.11
9764;BME280;4921;43.214;27.936;2024-02-21T08:40:53;101842.81;;;10.21;61.95
9764;BME280;4921;43.214;27.936;2024-02-21T08:43:19;101845.94;;;10.37;61.19
9764;BME280;4921;43.214;27.936;2024-02-21T08:45:45;101847.59;;;10.55;61.64
9764;BME280;4921;43.214;27.936;2024-02-21T08:48:10;101841.94;;;10.68;60.45
9764;BME280;4921;43.214;27.936;2024-02-21T08:50:36;101831.09;;;10.72;61.00
9764;BME280;4921;43.214;27.936;2024-02-21T08:53:03;101814.91;;;10.62;60.58
9764;BME280;4921;43.214;27.936;2024-02-21T08:55:29;101838.38;;;10.68;61.08
9764;BME280;4921;43.214;27.936;2024-02-21T08:57:54;101851.03;;;10.69;59.98
9764;BME280;4921;43.214;27.936;2024-02-21T09:00:20;101847.47;;;10.68;60.23
9764;BME280;4921;43.214;27.936;2024-02-21T09:02:52;101837.09;;;10.74;58.46
9764;BME280;4921;43.214;27.936;2024-02-21T09:05:17;101830.13;;;10.68;58.53
9764;BME280;4921;43.214;27.936;2024-02-21T09:07:43;101840.63;;;10.66;58.50
9764;BME280;4921;43.214;27.936;2024-02-21T09:10:09;101837.44;;;10.72;57.30
9764;BME280;4921;43.214;27.936;2024-02-21T09:12:34;101830.13;;;10.68;57.07
9764;BME280;4921;43.214;27.936;2024-02-21T09:15:00;101826.53;;;10.67;56.90
9764;BME280;4921;43.214;27.936;2024-02-21T09:17:25;101843.22;;;10.71;57.39
9764;BME280;4921;43.214;27.936;2024-02-21T09:19:55;101832.72;;;10.73;56.47
9764;BME280;4921;43.214;27.936;2024-02-21T09:22:24;101838.53;;;10.80;56.82
9764;BME280;4921;43.214;27.936;2024-02-21T09:24:49;101837.25;;;10.77;56.05
9764;BME280;4921;43.214;27.936;2024-02-21T09:27:15;101838.88;;;10.87;56.07
9764;BME280;4921;43.214;27.936;2024-02-21T09:29:40;101829.00;;;10.86;56.35
9764;BME280;4921;43.214;27.936;2024-02-21T09:32:06;101837.09;;;11.08;55.93
9764;BME280;4921;43.214;27.936;2024-02-21T09:34:32;101832.06;;;11.27;54.88
9764;BME280;4921;43.214;27.936;2024-02-21T09:36:57;101833.59;;;11.62;53.74
9764;BME280;4921;43.214;27.936;2024-02-21T09:39:23;101843.91;;;11.99;53.00
9764;BME280;4921;43.214;27.936;2024-02-21T09:41:58;101834.41;;;12.17;52.35
9764;BME280;4921;43.214;27.936;2024-02-21T09:44:24;101837.56;;;12.37;52.39
9764;BME280;4921;43.214;27.936;2024-02-21T09:47:24;101820.47;;;12.43;52.44
9764;BME280;4921;43.214;27.936;2024-02-21T09:49:43;101819.84;;;12.38;52.25
9764;BME280;4921;43.214;27.936;2024-02-21T09:52:10;101827.00;;;12.39;51.09
9764;BME280;4921;43.214;27.936;2024-02-21T09:54:39;101816.22;;;12.46;50.15
9764;BME280;4921;43.214;27.936;2024-02-21T09:57:05;101815.69;;;12.52;50.37
9764;BME280;4921;43.214;27.936;2024-02-21T09:59:32;101814.09;;;12.51;50.47
9764;BME280;4921;43.214;27.936;2024-02-21T10:01:58;101811.19;;;12.48;50.43
9764;BME280;4921;43.214;27.936;2024-02-21T10:04:27;101813.88;;;12.56;50.52
9764;BME280;4921;43.214;27.936;2024-02-21T10:06:55;101807.25;;;12.49;50.41
9764;BME280;4921;43.214;27.936;2024-02-21T10:09:25;101805.19;;;12.46;51.04
9764;BME280;4921;43.214;27.936;2024-02-21T10:11:54;101810.97;;;12.23;53.36
9764;BME280;4921;43.214;27.936;2024-02-21T10:14:19;101799.59;;;11.96;53.00
9764;BME280;4921;43.214;27.936;2024-02-21T10:16:56;101786.88;;;11.74;54.25
9764;BME280;4921;43.214;27.936;2024-02-21T10:19:25;101805.34;;;11.82;54.02
9764;BME280;4921;43.214;27.936;2024-02-21T10:22:10;101781.38;;;11.57;55.68
9764;BME280;4921;43.214;27.936;2024-02-21T10:24:37;101794.78;;;10.70;58.89
9764;BME280;4921;43.214;27.936;2024-02-21T10:27:09;101806.31;;;10.07;61.71
9764;BME280;4921;43.214;27.936;2024-02-21T10:29:40;101800.25;;;9.27;65.85
9764;BME280;4921;43.214;27.936;2024-02-21T10:32:11;101785.44;;;8.92;66.83
9764;BME280;4921;43.214;27.936;2024-02-21T10:34:38;101798.44;;;9.22;66.67
9764;BME280;4921;43.214;27.936;2024-02-21T10:37:08;101797.56;;;9.35;65.10
9764;BME280;4921;43.214;27.936;2024-02-21T10:39:36;101793.22;;;9.12;67.33
9764;BME280;4921;43.214;27.936;2024-02-21T10:42:02;101788.44;;;9.04;67.20
9764;BME280;4921;43.214;27.936;2024-02-21T10:44:37;101789.84;;;8.93;67.89
9764;BME280;4921;43.214;27.936;2024-02-21T10:47:09;101765.88;;;9.07;66.68
9764;BME280;4921;43.214;27.936;2024-02-21T10:49:38;101784.00;;;8.72;68.44
9764;BME280;4921;43.214;27.936;2024-02-21T10:54:58;101778.09;;;8.79;67.55
9764;BME280;4921;43.214;27.936;2024-02-21T10:57:27;101778.38;;;8.55;69.10
9764;BME280;4921;43.214;27.936;2024-02-21T10:59:55;101773.34;;;8.35;68.92
9764;BME280;4921;43.214;27.936;2024-02-21T11:02:21;101758.88;;;8.43;69.02
9764;BME280;4921;43.214;27.936;2024-02-21T11:04:47;101772.81;;;8.69;67.71
9764;BME280;4921;43.214;27.936;2024-02-21T11:07:14;101773.00;;;8.72;67.38
9764;BME280;4921;43.214;27.936;2024-02-21T11:09:50;101772.47;;;8.84;68.05
9764;BME280;4921;43.214;27.936;2024-02-21T11:12:20;101767.31;;;8.82;67.79
9764;BME280;4921;43.214;27.936;2024-02-21T11:14:46;101763.97;;;8.72;67.99
9764;BME280;4921;43.214;27.936;2024-02-21T11:17:18;101762.28;;;8.62;68.98
9764;BME280;4921;43.214;27.936;2024-02-21T11:19:44;101753.31;;;8.08;71.35
9764;BME280;4921;43.214;27.936;2024-02-21T11:22:17;101755.75;;;8.23;69.94
9764;BME280;4921;43.214;27.936;2024-02-21T11:24:43;101753.91;;;8.18;70.51
9764;BME280;4921;43.214;27.936;2024-02-21T11:27:11;101748.75;;;8.17;71.09
9764;BME280;4921;43.214;27.936;2024-02-21T11:29:44;101751.09;;;8.10;70.86
9764;BME280;4921;43.214;27.936;2024-02-21T11:32:19;101749.38;;;8.00;71.95
9764;BME280;4921;43.214;27.936;2024-02-21T11:34:55;101756.69;;;7.91;71.54
9764;BME280;4921;43.214;27.936;2024-02-21T11:37:21;101753.63;;;8.20;70.76
9764;BME280;4921;43.214;27.936;2024-02-21T11:39:46;101747.34;;;8.06;72.21
9764;BME280;4921;43.214;27.936;2024-02-21T11:42:12;101749.38;;;8.00;71.79
9764;BME280;4921;43.214;27.936;2024-02-21T11:44:39;101745.47;;;8.15;71.88
9764;BME280;4921;43.214;27.936;2024-02-21T11:47:08;101746.22;;;8.34;70.67
9764;BME280;4921;43.214;27.936;2024-02-21T11:49:45;101738.69;;;8.12;72.51
9764;BME280;4921;43.214;27.936;2024-02-21T11:52:12;101724.91;;;8.04;72.90
9764;BME280;4921;43.214;27.936;2024-02-21T11:54:40;101733.81;;;8.23;72.32
9764;BME280;4921;43.214;27.936;2024-02-21T11:57:06;101722.56;;;8.11;72.14
9764;BME280;4921;43.214;27.936;2024-02-21T11:59:33;101728.03;;;8.11;71.20
9764;BME280;4921;43.214;27.936;2024-02-21T12:02:00;101732.50;;;8.34;71.39
9764;BME280;4921;43.214;27.936;2024-02-21T12:04:26;101723.91;;;8.49;70.87
9764;BME280;4921;43.214;27.936;2024-02-21T12:06:54;101736.03;;;8.70;70.19
9764;BME280;4921;43.214;27.936;2024-02-21T12:09:22;101708.44;;;8.53;69.73
9764;BME280;4921;43.214;27.936;2024-02-21T12:12:03;101727.09;;;8.64;70.28
9764;BME280;4921;43.214;27.936;2024-02-21T12:14:31;101717.91;;;8.47;71.28
9764;BME280;4921;43.214;27.936;2024-02-21T12:16:57;101717.78;;;8.52;71.51
9764;BME280;4921;43.214;27.936;2024-02-21T12:19:22;101715.78;;;8.44;71.00
9764;BME280;4921;43.214;27.936;2024-02-21T12:21:49;101711.81;;;8.72;70.99
9764;BME280;4921;43.214;27.936;2024-02-21T12:24:23;101705.88;;;8.56;72.05
9764;BME280;4921;43.214;27.936;2024-02-21T12:26:49;101718.09;;;8.72;71.02
9764;BME280;4921;43.214;27.936;2024-02-21T12:29:15;101708.94;;;8.77;70.88
9764;BME280;4921;43.214;27.936;2024-02-21T12:31:41;101697.59;;;8.48;71.32
9764;BME280;4921;43.214;27.936;2024-02-21T12:34:06;101691.59;;;8.68;71.84
9764;BME280;4921;43.214;27.936;2024-02-21T12:36:36;101705.06;;;8.78;70.81
9764;BME280;4921;43.214;27.936;2024-02-21T12:39:01;101699.75;;;8.59;72.62
9764;BME280;4921;43.214;27.936;2024-02-21T12:41:29;101700.69;;;8.77;70.02
9764;BME280;4921;43.214;27.936;2024-02-21T12:43:56;101702.19;;;8.83;70.18
9764;BME280;4921;43.214;27.936;2024-02-21T12:46:22;101685.66;;;8.52;72.33
9764;BME280;4921;43.214;27.936;2024-02-21T12:48:47;101706.00;;;8.73;71.44
9764;BME280;4921;43.214;27.936;2024-02-21T12:51:13;101712.84;;;8.62;70.40
9764;BME280;4921;43.214;27.936;2024-02-21T12:53:39;101705.81;;;8.70;71.40
9764;BME280;4921;43.214;27.936;2024-02-21T12:56:05;101699.81;;;8.68;71.45
9764;BME280;4921;43.214;27.936;2024-02-21T12:58:32;101695.28;;;8.63;71.19
9764;BME280;4921;43.214;27.936;2024-02-21T13:00:58;101709.78;;;8.64;71.50
9764;BME280;4921;43.214;27.936;2024-02-21T13:03:24;101708.28;;;8.36;72.94
9764;BME280;4921;43.214;27.936;2024-02-21T13:05:49;101693.06;;;8.30;73.29
9764;BME280;4921;43.214;27.936;2024-02-21T13:08:15;101699.19;;;8.00;74.06
9764;BME280;4921;43.214;27.936;2024-02-21T13:10:40;101687.09;;;8.01;73.76
9764;BME280;4921;43.214;27.936;2024-02-21T13:13:06;101681.47;;;8.19;73.06
9764;BME280;4921;43.214;27.936;2024-02-21T13:15:31;101701.13;;;8.13;73.58